Wetterdaten: Woche 03.10.16 - 09.10.16 (KW40)
Datum Zeit Temperatur Luftfeuchte Luftdruck Niederschlag Windrichtung Sonnenschein Solar Wind
03.10.2016 00:00 8,3 C 78 % 1019,8 hPa 0,0 l/m W 0,00 h 0 W/m 11,3 km/h (2 Bft)
03.10.2016 01:00 7,6 C 82 % 1020,4 hPa 0,0 l/m W 0,00 h 0 W/m 4,2 km/h (1 Bft)
03.10.2016 02:00 7,9 C 85 % 1020,6 hPa 0,0 l/m W-SW 0,00 h 0 W/m 14,5 km/h (3 Bft)
03.10.2016 03:00 8,7 C 83 % 1020,9 hPa 0,0 l/m W-SW 0,00 h 0 W/m 13,7 km/h (3 Bft)
03.10.2016 04:00 8,8 C 83 % 1021,2 hPa 0,4 l/m W-SW 0,00 h 0 W/m 12,0 km/h (2 Bft)
03.10.2016 05:00 8,0 C 92 % 1021,6 hPa 0,8 l/m W 0,00 h 0 W/m 11,3 km/h (2 Bft)
03.10.2016 06:00 7,7 C 94 % 1022,0 hPa 0,0 l/m W 0,00 h 0 W/m 3,4 km/h (1 Bft)
03.10.2016 07:00 7,4 C 96 % 1022,8 hPa 0,0 l/m W 0,00 h 16 W/m 1,1 km/h (0 Bft)
03.10.2016 08:00 7,6 C 96 % 1023,5 hPa 0,0 l/m W 0,17 h 73 W/m 5,5 km/h (1 Bft)
03.10.2016 09:00 8,7 C 96 % 1024,0 hPa 0,0 l/m W 0,92 h 301 W/m 9,0 km/h (2 Bft)
03.10.2016 10:00 10,8 C 86 % 1024,5 hPa 0,0 l/m W 0,50 h 303 W/m 13,9 km/h (3 Bft)
03.10.2016 11:00 11,8 C 80 % 1024,6 hPa 0,0 l/m W 0,17 h 313 W/m 13,4 km/h (3 Bft)
03.10.2016 12:00 12,6 C 74 % 1024,4 hPa 0,0 l/m W 0,58 h 442 W/m 14,0 km/h (3 Bft)
03.10.2016 13:00 13,3 C 66 % 1024,1 hPa 0,0 l/m W-NW 0,42 h 310 W/m 15,4 km/h (3 Bft)
03.10.2016 14:00 14,6 C 61 % 1023,8 hPa 0,0 l/m W 0,92 h 585 W/m 15,3 km/h (3 Bft)
03.10.2016 15:00 14,5 C 56 % 1023,5 hPa 0,0 l/m W 0,42 h 212 W/m 15,7 km/h (3 Bft)
03.10.2016 16:00 13,9 C 60 % 1023,3 hPa 0,0 l/m W 0,17 h 131 W/m 13,6 km/h (3 Bft)
03.10.2016 17:00 13,2 C 65 % 1023,5 hPa 0,0 l/m N-NW 0,00 h 50 W/m 8,4 km/h (2 Bft)
03.10.2016 18:00 12,1 C 73 % 1023,9 hPa 0,0 l/m N-NW 0,00 h 17 W/m 7,4 km/h (2 Bft)
03.10.2016 19:00 10,6 C 87 % 1024,4 hPa 0,0 l/m N 0,00 h 0 W/m 0,0 km/h (0 Bft)
03.10.2016 20:00 9,9 C 90 % 1024,9 hPa 0,0 l/m N 0,00 h 0 W/m 0,0 km/h (0 Bft)
03.10.2016 21:00 9,6 C 92 % 1025,3 hPa 0,0 l/m N 0,00 h 0 W/m 0,0 km/h (0 Bft)
03.10.2016 22:00 9,3 C 93 % 1025,3 hPa 0,0 l/m N 0,00 h 0 W/m 0,0 km/h (0 Bft)
03.10.2016 23:00 8,9 C 93 % 1025,3 hPa 0,0 l/m N 0,00 h 0 W/m 0,0 km/h (0 Bft)
04.10.2016 00:00 8,7 C 94 % 1025,4 hPa 0,0 l/m N 0,00 h 0 W/m 0,0 km/h (0 Bft)
04.10.2016 01:00 8,8 C 94 % 1025,4 hPa 0,2 l/m N 0,00 h 0 W/m 0,0 km/h (0 Bft)
04.10.2016 02:00 8,8 C 96 % 1025,5 hPa 0,0 l/m N 0,00 h 0 W/m 0,0 km/h (0 Bft)
04.10.2016 03:00 8,8 C 96 % 1025,5 hPa 0,0 l/m N-NW 0,00 h 0 W/m 3,7 km/h (1 Bft)
04.10.2016 04:00 8,8 C 96 % 1025,6 hPa 0,2 l/m N-NW 0,00 h 0 W/m 4,0 km/h (1 Bft)
04.10.2016 05:00 8,5 C 96 % 1025,8 hPa 0,0 l/m N-NW 0,00 h 0 W/m 4,8 km/h (1 Bft)
04.10.2016 06:00 8,0 C 96 % 1025,9 hPa 0,0 l/m N 0,00 h 0 W/m 0,1 km/h (0 Bft)
04.10.2016 07:00 6,7 C 97 % 1026,5 hPa 0,0 l/m N 0,00 h 13 W/m 0,3 km/h (0 Bft)
04.10.2016 08:00 7,3 C 98 % 1027,1 hPa 0,0 l/m NO 0,00 h 67 W/m 5,1 km/h (1 Bft)
04.10.2016 09:00 8,0 C 96 % 1027,5 hPa 0,0 l/m O-NO 0,08 h 126 W/m 8,3 km/h (2 Bft)
04.10.2016 10:00 9,2 C 92 % 1027,6 hPa 0,0 l/m O 0,58 h 366 W/m 11,3 km/h (2 Bft)
04.10.2016 11:00 11,1 C 85 % 1027,5 hPa 0,0 l/m O-SO 1,00 h 575 W/m 13,0 km/h (3 Bft)
04.10.2016 12:00 12,6 C 77 % 1027,3 hPa 0,0 l/m O 0,92 h 630 W/m 13,4 km/h (3 Bft)
04.10.2016 13:00 13,0 C 73 % 1027,1 hPa 0,0 l/m O 0,25 h 263 W/m 14,0 km/h (3 Bft)
04.10.2016 14:00 13,5 C 71 % 1026,7 hPa 0,0 l/m O 0,58 h 397 W/m 14,0 km/h (3 Bft)
04.10.2016 15:00 13,2 C 73 % 1026,6 hPa 0,0 l/m O-NO 0,17 h 122 W/m 13,2 km/h (3 Bft)
04.10.2016 16:00 12,1 C 81 % 1027,0 hPa 0,0 l/m NO 0,00 h 75 W/m 15,6 km/h (3 Bft)
04.10.2016 17:00 11,0 C 89 % 1027,2 hPa 0,2 l/m NO 0,00 h 40 W/m 16,4 km/h (3 Bft)
04.10.2016 18:00 10,4 C 93 % 1027,5 hPa 0,0 l/m O-NO 0,00 h 12 W/m 12,6 km/h (3 Bft)
04.10.2016 19:00 10,3 C 93 % 1027,8 hPa 0,0 l/m O-NO 0,00 h 0 W/m 12,4 km/h (3 Bft)
04.10.2016 20:00 10,2 C 94 % 1027,9 hPa 0,0 l/m O-NO 0,00 h 0 W/m 12,4 km/h (3 Bft)
04.10.2016 21:00 9,9 C 95 % 1027,8 hPa 0,2 l/m O-NO 0,00 h 0 W/m 18,1 km/h (3 Bft)
04.10.2016 22:00 9,1 C 90 % 1027,9 hPa 0,0 l/m O 0,00 h 0 W/m 16,1 km/h (3 Bft)
04.10.2016 23:00 9,1 C 89 % 1027,9 hPa 0,0 l/m O-NO 0,00 h 0 W/m 12,8 km/h (3 Bft)
05.10.2016 00:00 8,9 C 91 % 1027,6 hPa 0,0 l/m O-NO 0,00 h 0 W/m 15,4 km/h (3 Bft)
05.10.2016 01:00 8,7 C 91 % 1027,2 hPa 0,0 l/m O-NO 0,00 h 0 W/m 11,8 km/h (2 Bft)
05.10.2016 02:00 8,3 C 91 % 1026,9 hPa 0,0 l/m O-NO 0,00 h 0 W/m 13,4 km/h (3 Bft)
05.10.2016 03:00 7,4 C 91 % 1026,5 hPa 0,0 l/m O-NO 0,00 h 0 W/m 12,8 km/h (3 Bft)
05.10.2016 04:00 6,4 C 92 % 1026,3 hPa 0,0 l/m O-NO 0,00 h 0 W/m 8,6 km/h (2 Bft)
05.10.2016 05:00 6,1 C 93 % 1026,2 hPa 0,0 l/m O-NO 0,00 h 0 W/m 7,2 km/h (2 Bft)
05.10.2016 06:00 5,7 C 93 % 1025,9 hPa 0,0 l/m O-NO 0,00 h 0 W/m 11,0 km/h (2 Bft)
05.10.2016 07:00 5,3 C 93 % 1025,9 hPa 0,0 l/m O-NO 0,08 h 15 W/m 13,7 km/h (3 Bft)
05.10.2016 08:00 5,3 C 93 % 1025,9 hPa 0,0 l/m O-NO 0,50 h 110 W/m 13,4 km/h (3 Bft)
05.10.2016 09:00 5,9 C 91 % 1025,9 hPa 0,0 l/m O-NO 0,83 h 282 W/m 18,4 km/h (3 Bft)
05.10.2016 10:00 7,7 C 84 % 1025,8 hPa 0,0 l/m O-NO 0,83 h 448 W/m 18,8 km/h (3 Bft)
05.10.2016 11:00 8,8 C 74 % 1025,7 hPa 0,0 l/m O 0,50 h 464 W/m 22,7 km/h (4 Bft)
05.10.2016 12:00 9,2 C 66 % 1025,6 hPa 0,0 l/m O 0,25 h 339 W/m 27,1 km/h (4 Bft)
05.10.2016 13:00 8,8 C 67 % 1025,5 hPa 0,0 l/m NO 0,33 h 363 W/m 24,8 km/h (4 Bft)
05.10.2016 14:00 10,6 C 59 % 1024,7 hPa 0,0 l/m O 0,83 h 571 W/m 23,9 km/h (4 Bft)
05.10.2016 15:00 10,7 C 54 % 1024,0 hPa 0,0 l/m O-NO 0,67 h 356 W/m 23,7 km/h (4 Bft)
05.10.2016 16:00 10,3 C 55 % 1023,9 hPa 0,0 l/m O 0,50 h 235 W/m 23,4 km/h (4 Bft)
05.10.2016 17:00 9,3 C 59 % 1024,0 hPa 0,0 l/m O-NO 0,17 h 83 W/m 20,9 km/h (4 Bft)
05.10.2016 18:00 8,4 C 65 % 1024,3 hPa 0,0 l/m O-NO 0,00 h 17 W/m 18,8 km/h (3 Bft)
05.10.2016 19:00 6,7 C 71 % 1024,5 hPa 0,0 l/m O-NO 0,00 h 0 W/m 5,6 km/h (1 Bft)
05.10.2016 20:00 4,7 C 81 % 1024,4 hPa 0,0 l/m O-NO 0,00 h 0 W/m 1,3 km/h (1 Bft)
05.10.2016 21:00 4,4 C 83 % 1024,0 hPa 0,0 l/m O-NO 0,00 h 0 W/m 4,4 km/h (1 Bft)
05.10.2016 22:00 3,7 C 86 % 1023,5 hPa 0,0 l/m N 0,00 h 0 W/m 2,0 km/h (1 Bft)
05.10.2016 23:00 2,7 C 90 % 1022,9 hPa 0,0 l/m O-NO 0,00 h 0 W/m 4,7 km/h (1 Bft)
06.10.2016 00:00 2,5 C 92 % 1022,4 hPa 0,0 l/m O-NO 0,00 h 0 W/m 4,0 km/h (1 Bft)
06.10.2016 01:00 2,2 C 93 % 1021,8 hPa 0,0 l/m O-NO 0,00 h 0 W/m 2,9 km/h (1 Bft)
06.10.2016 02:00 1,6 C 94 % 1021,1 hPa 0,0 l/m NO 0,00 h 0 W/m 1,5 km/h (1 Bft)
06.10.2016 03:00 1,4 C 95 % 1020,6 hPa 0,0 l/m NO 0,00 h 0 W/m 3,5 km/h (1 Bft)
06.10.2016 04:00 1,6 C 95 % 1020,4 hPa 0,0 l/m N 0,00 h 0 W/m 0,3 km/h (0 Bft)
06.10.2016 05:00 2,5 C 95 % 1020,2 hPa 0,0 l/m N 0,00 h 0 W/m 0,0 km/h (0 Bft)
06.10.2016 06:00 3,0 C 95 % 1020,0 hPa 0,0 l/m N 0,00 h 0 W/m 0,1 km/h (0 Bft)
06.10.2016 07:00 3,6 C 95 % 1019,6 hPa 0,0 l/m N 0,00 h 6 W/m 0,5 km/h (0 Bft)
06.10.2016 08:00 3,9 C 95 % 1019,4 hPa 0,0 l/m N 0,00 h 39 W/m 0,7 km/h (0 Bft)
06.10.2016 09:00 4,8 C 95 % 1019,1 hPa 0,0 l/m NO 0,17 h 140 W/m 5,6 km/h (1 Bft)
06.10.2016 10:00 6,1 C 92 % 1018,8 hPa 0,0 l/m NO 0,17 h 142 W/m 10,3 km/h (2 Bft)
06.10.2016 11:00 6,3 C 93 % 1018,5 hPa 0,0 l/m NO 0,00 h 124 W/m 2,4 km/h (1 Bft)
06.10.2016 12:00 7,2 C 88 % 1018,2 hPa 0,0 l/m O-NO 0,08 h 184 W/m 10,1 km/h (2 Bft)
06.10.2016 13:00 7,6 C 85 % 1018,2 hPa 0,0 l/m O-NO 0,00 h 190 W/m 12,4 km/h (3 Bft)
06.10.2016 14:00 8,2 C 82 % 1017,6 hPa 0,0 l/m O-NO 0,00 h 207 W/m 14,4 km/h (3 Bft)
06.10.2016 15:00 8,6 C 80 % 1016,8 hPa 0,0 l/m O-NO 0,00 h 181 W/m 14,9 km/h (3 Bft)
06.10.2016 16:00 8,4 C 82 % 1016,3 hPa 0,0 l/m O-NO 0,00 h 76 W/m 14,1 km/h (3 Bft)
06.10.2016 17:00 8,2 C 83 % 1016,2 hPa 0,0 l/m O-NO 0,00 h 44 W/m 11,8 km/h (2 Bft)
06.10.2016 18:00 8,0 C 85 % 1016,7 hPa 0,0 l/m O-NO 0,00 h 11 W/m 8,8 km/h (2 Bft)
06.10.2016 19:00 7,7 C 87 % 1017,2 hPa 0,0 l/m NO 0,00 h 0 W/m 9,8 km/h (2 Bft)
06.10.2016 20:00 7,5 C 89 % 1017,2 hPa 0,0 l/m NO 0,00 h 0 W/m 8,7 km/h (2 Bft)
06.10.2016 21:00 7,3 C 90 % 1017,1 hPa 0,0 l/m NO 0,00 h 0 W/m 3,9 km/h (1 Bft)
06.10.2016 22:00 7,2 C 91 % 1016,8 hPa 0,0 l/m O-NO 0,00 h 0 W/m 7,8 km/h (2 Bft)
06.10.2016 23:00 7,1 C 92 % 1016,4 hPa 0,0 l/m O-NO 0,00 h 0 W/m 6,8 km/h (2 Bft)
07.10.2016 00:00 7,3 C 92 % 1016,1 hPa 0,0 l/m O-NO 0,00 h 0 W/m 2,4 km/h (1 Bft)
07.10.2016 01:00 7,3 C 92 % 1015,9 hPa 0,0 l/m N 0,00 h 0 W/m 1,6 km/h (1 Bft)
07.10.2016 02:00 7,2 C 94 % 1015,8 hPa 0,0 l/m N 0,00 h 0 W/m 0,7 km/h (0 Bft)
07.10.2016 03:00 6,9 C 96 % 1015,7 hPa 0,0 l/m O-NO 0,00 h 0 W/m 1,6 km/h (1 Bft)
07.10.2016 04:00 6,7 C 97 % 1015,4 hPa 0,0 l/m N 0,00 h 0 W/m 0,0 km/h (0 Bft)
07.10.2016 05:00 6,6 C 97 % 1015,2 hPa 0,0 l/m N 0,00 h 0 W/m 0,3 km/h (0 Bft)
07.10.2016 06:00 6,7 C 96 % 1015,2 hPa 0,0 l/m N 0,00 h 0 W/m 0,0 km/h (0 Bft)
07.10.2016 07:00 6,7 C 96 % 1015,5 hPa 0,0 l/m N 0,00 h 7 W/m 0,0 km/h (0 Bft)
07.10.2016 08:00 6,7 C 97 % 1015,7 hPa 0,2 l/m N 0,00 h 12 W/m 0,0 km/h (0 Bft)
07.10.2016 09:00 7,2 C 98 % 1015,8 hPa 0,0 l/m N 0,00 h 57 W/m 0,0 km/h (0 Bft)
07.10.2016 10:00 8,1 C 97 % 1015,9 hPa 0,0 l/m O-NO 0,00 h 129 W/m 2,0 km/h (1 Bft)
07.10.2016 11:00 8,8 C 93 % 1016,0 hPa 0,0 l/m O-NO 0,00 h 148 W/m 6,1 km/h (2 Bft)
07.10.2016 12:00 9,5 C 90 % 1016,0 hPa 0,0 l/m O-NO 0,00 h 171 W/m 9,4 km/h (2 Bft)
07.10.2016 13:00 9,3 C 89 % 1015,9 hPa 0,0 l/m NO 0,00 h 134 W/m 9,3 km/h (2 Bft)
07.10.2016 14:00 10,4 C 84 % 1015,7 hPa 0,0 l/m O 0,50 h 328 W/m 10,3 km/h (2 Bft)
07.10.2016 15:00 10,5 C 82 % 1015,8 hPa 0,0 l/m O 0,00 h 162 W/m 11,3 km/h (2 Bft)
07.10.2016 16:00 10,0 C 84 % 1016,0 hPa 0,0 l/m O-NO 0,00 h 86 W/m 8,2 km/h (2 Bft)
07.10.2016 17:00 9,8 C 86 % 1016,1 hPa 0,0 l/m O-NO 0,00 h 47 W/m 6,9 km/h (2 Bft)
07.10.2016 18:00 9,3 C 87 % 1016,4 hPa 0,0 l/m O-NO 0,00 h 14 W/m 5,9 km/h (2 Bft)
07.10.2016 19:00 9,0 C 89 % 1016,7 hPa 0,0 l/m O-NO 0,00 h 0 W/m 2,3 km/h (1 Bft)
07.10.2016 20:00 8,6 C 90 % 1016,9 hPa 0,0 l/m O-NO 0,00 h 0 W/m 8,3 km/h (2 Bft)
07.10.2016 21:00 8,3 C 92 % 1016,8 hPa 0,0 l/m O-NO 0,00 h 0 W/m 3,6 km/h (1 Bft)
07.10.2016 22:00 8,0 C 93 % 1016,9 hPa 0,0 l/m O-NO 0,00 h 0 W/m 4,3 km/h (1 Bft)
07.10.2016 23:00 7,7 C 94 % 1016,9 hPa 0,0 l/m O-NO 0,00 h 0 W/m 6,4 km/h (2 Bft)
08.10.2016 00:00 7,6 C 94 % 1017,0 hPa 0,0 l/m O-NO 0,00 h 0 W/m 8,2 km/h (2 Bft)
08.10.2016 01:00 7,4 C 94 % 1017,2 hPa 0,0 l/m O-NO 0,00 h 0 W/m 9,0 km/h (2 Bft)
08.10.2016 02:00 7,2 C 94 % 1017,3 hPa 0,0 l/m NO 0,00 h 0 W/m 7,0 km/h (2 Bft)
08.10.2016 03:00 6,8 C 94 % 1017,1 hPa 0,0 l/m N 0,00 h 0 W/m 1,3 km/h (1 Bft)
08.10.2016 04:00 6,6 C 95 % 1016,9 hPa 0,0 l/m NO 0,00 h 0 W/m 1,9 km/h (1 Bft)
08.10.2016 05:00 6,4 C 95 % 1016,9 hPa 0,0 l/m NO 0,00 h 0 W/m 3,9 km/h (1 Bft)
08.10.2016 06:00 6,2 C 95 % 1016,9 hPa 0,0 l/m NO 0,00 h 0 W/m 3,1 km/h (1 Bft)
08.10.2016 07:00 6,2 C 96 % 1017,2 hPa 0,2 l/m N 0,00 h 8 W/m 0,3 km/h (0 Bft)
08.10.2016 08:00 6,3 C 96 % 1017,6 hPa 0,0 l/m NO 0,00 h 34 W/m 3,2 km/h (1 Bft)
08.10.2016 09:00 6,6 C 93 % 1018,1 hPa 0,0 l/m NO 0,00 h 82 W/m 7,2 km/h (2 Bft)
08.10.2016 10:00 7,4 C 89 % 1018,4 hPa 0,0 l/m NO 0,00 h 151 W/m 6,0 km/h (2 Bft)
08.10.2016 11:00 8,3 C 85 % 1018,6 hPa 0,0 l/m NO 0,25 h 253 W/m 7,4 km/h (2 Bft)
08.10.2016 12:00 9,7 C 76 % 1018,8 hPa 0,0 l/m NO 0,33 h 304 W/m 10,7 km/h (2 Bft)
08.10.2016 13:00 9,8 C 75 % 1018,9 hPa 0,0 l/m NO 0,25 h 277 W/m 9,4 km/h (2 Bft)
08.10.2016 14:00 9,8 C 73 % 1019,1 hPa 0,0 l/m NO 0,00 h 232 W/m 7,4 km/h (2 Bft)
08.10.2016 15:00 10,4 C 71 % 1019,2 hPa 0,0 l/m O 0,58 h 284 W/m 6,9 km/h (2 Bft)
08.10.2016 16:00 9,9 C 71 % 1019,6 hPa 0,0 l/m O 0,00 h 124 W/m 9,4 km/h (2 Bft)
08.10.2016 17:00 9,5 C 74 % 1020,0 hPa 0,0 l/m O 0,00 h 52 W/m 7,0 km/h (2 Bft)
08.10.2016 18:00 8,8 C 79 % 1020,4 hPa 0,0 l/m O 0,00 h 15 W/m 1,7 km/h (1 Bft)
08.10.2016 19:00 7,3 C 88 % 1020,8 hPa 0,0 l/m N 0,00 h 0 W/m 0,0 km/h (0 Bft)
08.10.2016 20:00 5,6 C 93 % 1021,2 hPa 0,0 l/m N 0,00 h 0 W/m 0,0 km/h (0 Bft)
08.10.2016 21:00 5,7 C 95 % 1021,2 hPa 0,0 l/m N 0,00 h 0 W/m 0,0 km/h (0 Bft)
08.10.2016 22:00 5,2 C 95 % 1021,3 hPa 0,0 l/m N 0,00 h 0 W/m 0,0 km/h (0 Bft)
08.10.2016 23:00 5,0 C 96 % 1021,6 hPa 0,0 l/m N 0,00 h 0 W/m 0,0 km/h (0 Bft)
09.10.2016 00:00 6,0 C 96 % 1021,5 hPa 0,0 l/m N 0,00 h 0 W/m 0,0 km/h (0 Bft)
09.10.2016 01:00 6,2 C 96 % 1021,4 hPa 0,0 l/m N 0,00 h 0 W/m 0,7 km/h (0 Bft)
09.10.2016 02:00 6,3 C 96 % 1021,5 hPa 0,0 l/m N 0,00 h 0 W/m 0,4 km/h (0 Bft)
09.10.2016 03:00 6,2 C 95 % 1021,1 hPa 0,0 l/m N 0,00 h 0 W/m 1,2 km/h (1 Bft)
09.10.2016 04:00 5,7 C 95 % 1020,9 hPa 0,0 l/m N 0,00 h 0 W/m 0,0 km/h (0 Bft)
09.10.2016 05:00 5,6 C 95 % 1020,9 hPa 0,0 l/m N 0,00 h 0 W/m 0,0 km/h (0 Bft)
09.10.2016 06:00 5,2 C 95 % 1020,8 hPa 0,0 l/m N 0,00 h 0 W/m 0,0 km/h (0 Bft)
09.10.2016 07:00 5,2 C 96 % 1020,7 hPa 0,0 l/m N 0,00 h 10 W/m 1,3 km/h (1 Bft)
09.10.2016 08:00 5,5 C 96 % 1021,0 hPa 0,0 l/m N 0,00 h 37 W/m 0,4 km/h (0 Bft)
09.10.2016 09:00 6,0 C 95 % 1021,0 hPa 0,0 l/m O 0,00 h 105 W/m 5,7 km/h (1 Bft)
09.10.2016 10:00 7,0 C 91 % 1021,0 hPa 0,0 l/m O 0,00 h 191 W/m 7,1 km/h (2 Bft)
09.10.2016 11:00 7,9 C 87 % 1021,0 hPa 0,0 l/m O-NO 0,25 h 241 W/m 10,1 km/h (2 Bft)
09.10.2016 12:00 8,8 C 83 % 1021,0 hPa 0,0 l/m N-NO 0,42 h 248 W/m 12,5 km/h (3 Bft)
09.10.2016 13:00 8,7 C 84 % 1020,9 hPa 0,0 l/m NO 0,00 h 246 W/m 12,9 km/h (3 Bft)
09.10.2016 14:00 9,7 C 78 % 1020,6 hPa 0,0 l/m O-NO 0,75 h 353 W/m 14,6 km/h (3 Bft)
09.10.2016 15:00 10,4 C 74 % 1020,4 hPa 0,0 l/m NO 0,58 h 319 W/m 12,2 km/h (2 Bft)
09.10.2016 16:00 10,2 C 72 % 1020,2 hPa 0,0 l/m NO 0,67 h 212 W/m 11,8 km/h (2 Bft)
09.10.2016 17:00 9,8 C 71 % 1020,2 hPa 0,0 l/m NO 0,50 h 104 W/m 7,4 km/h (2 Bft)
09.10.2016 18:00 9,0 C 75 % 1020,6 hPa 0,0 l/m N-NO 0,08 h 22 W/m 6,0 km/h (2 Bft)
09.10.2016 19:00 7,0 C 84 % 1021,3 hPa 0,0 l/m NO 0,00 h 0 W/m 3,1 km/h (1 Bft)
09.10.2016 20:00 5,6 C 89 % 1021,8 hPa 0,0 l/m N 0,00 h 0 W/m 0,7 km/h (0 Bft)
09.10.2016 21:00 4,6 C 92 % 1022,2 hPa 0,0 l/m N 0,00 h 0 W/m 0,0 km/h (0 Bft)
09.10.2016 22:00 4,3 C 93 % 1022,6 hPa 0,0 l/m N 0,00 h 0 W/m 0,7 km/h (0 Bft)
09.10.2016 23:00 4,8 C 93 % 1022,7 hPa 0,0 l/m N 0,00 h 0 W/m 0,0 km/h (0 Bft)
Min-Datum _ 06.10.16 03.10.16 07.10.16 - - - - 03.10.16
_ Min-Zeit 03:50 15:05 06:15 - - - - 01:35
Minimum _ 1,2 C 52 % 1015,0 hPa - - - - 0,0 km/h (0 Bft)
Max-Datum _ 03.10.16 04.10.16 04.10.16 03.10.16 - 03.10.16 04.10.16 05.10.16
_ Max-Zeit 14:55 07:55 20:30 05:10 - 08:50 14:10 11:50
Maximum _ 15,4 C 98 % 1028,0 hPa 0,8 l/m - 0,08 h 816 W/m 33,8 km/h
O-SO (5 Bft)
Durchschnitt _ 7,9 C 87 % 1021,4 hPa #2,4 l/m O-NO #18:55 h 182 W/m 7,4 km/h (2 Bft)